Glenville, WV

2:35 AM EDT on July 24, 2014 (GMT -0400)
Benedum (KCKB) Elev 1204 ft | 39.30 °N, 80.23 °W | Change Station

Current weather conditions updated 42 minutes ago

Light Rain
Light Rain
68 °F
Feels Like 68 °F
N
8
Wind Variable Wind from North

Today is forecast to be Much Cooler than yesterday. Morning showers.

Today
High -- | Low -- °F
--% Chance of Precip.
Yesterday
High -- | Low -- °F
Precip. -- in
6:17 AM 8:41 PM
Waning Crescent, 6% visible
Pressure 29.94 in
Visibility 10.0 miles
Clouds Overcast 1800 ft
Dew Point 63 °F
Humidity 84%
Rainfall 0.00 in
Snow Depth Not available.
UV 0 out of 12
Pollen 4.40 out of 12
Air Quality Not available.
Flu Activity Not available.
METAR KCKB 240553Z 01007KT 10SM -RA OVC018 20/17 A2999 RMK AO2 RAB03E12B45 SLP138 P0000 60000 T02000172 10261 20200 50005 $

More Conditions Fewer Conditions

Pressure 29.94 in
Visibility 10.0 miles
Clouds Overcast 1800 ft
Dew Point 63 °F
Humidity 84%
Rainfall 0.00 in
Snow Depth Not available.
UV 0 out of 12
Pollen 4.40 out of 12
Air Quality Not available.
Flu Activity Not available.
METAR KCKB 240553Z 01007KT 10SM -RA OVC018 20/17 A2999 RMK AO2 RAB03E12B45 SLP138 P0000 60000 T02000172 10261 20200 50005 $

More Conditions Fewer Conditions

10-Day Weather Forecast

Almanac

Astronomy

Jul. 24, 2014 Rise Set
Actual Time 6:17 AM EDT 8:41 PM EDT
Civil Twilight 5:46 AM EDT 9:12 PM EDT
Nautical Twilight 5:09 AM EDT 9:49 PM EDT
Astronomical Twilight 4:27 AM EDT 10:31 PM EDT
Moon 4:23 AM EDT 6:56 PM EDT
Length of Visible Light 15h 25m
Length of Day
14h 24m
Tomorrow will be 1m 40s shorter.
Waning Crescent, 6% of the Moon is Illuminated
Today
Waning Crescent
Jul 26
New
Aug 3
First Quarter
Aug 10
Full
Aug 17
Last Quarter

Today's Extremes

State Highs State Lows

Community

WunderPhotos

Upload Photos

1,736,950 photos uploaded!

Nearby

Snow Depth

Station Depth Elevation
No new snow has been reported.

Earthquake Activity

City Distance Mag. Time & Date
No recent earthquake activity has been reported nearby.
Minimum magnitude displayed is 2.5.

Coastal Water Temperatures

Place Temperature
No Stations Reporting

Nearby Weather Stations

Station Location Temp. Heat Index Dew Point Humidity Wind Precip. Elev Updated Type
Brooklyn Point, Glenville, WV 73.2 °F 70 °F 71 °F 93% ENE  at  0.0 mph - / hr 732 ft 1:26 AM CDT Normal
Quirky Towers, Vadis, Alum Bridge, WV 71.2 °F - 71 °F 99% SE  at  0.7 mph 0.00 in / hr 837 ft 2:34 AM EDT Normal
W8PY @ Harmony, West Union, WV 69.6 °F - 67 °F 92% South  at  0.0 mph 0.00 in / hr 852 ft 2:33 AM EDT Normal
Grapevine Circle, Gassaway, WV 69.3 °F - 69 °F 100% ENE  at  0.0 mph 0.18 in / hr 1270 ft 2:29 AM EDT Normal
Frame Circle, Gassaway, WV 70.3 °F - 69 °F 96% ESE  at  0.0 mph 0.26 in / hr 890 ft 2:35 AM EDT Rapid Fire
APRSWXNET Harrisville WV US, Hazelgreen, WV 71 °F - 67 °F 86% NE  at  1 mph 0.00 in / hr 806 ft 1:39 AM EDT MADIS

Show More Stations Show Fewer Stations